sensor_id;sensor_type;location;lat;lon;timestamp;temperature;humidity
43920;DHT22;29578;51.946;5.874;2023-04-04T10:38:36;8.90;74.80
43920;DHT22;29578;51.946;5.874;2023-04-04T10:41:05;8.80;73.90
43920;DHT22;29578;51.946;5.874;2023-04-04T10:43:34;9.00;75.80
43920;DHT22;29578;51.946;5.874;2023-04-04T10:46:07;9.00;77.40
43920;DHT22;29578;51.946;5.874;2023-04-04T10:48:35;9.10;79.20
43920;DHT22;29578;51.946;5.874;2023-04-04T10:51:03;9.20;79.10
43920;DHT22;29578;51.946;5.874;2023-04-04T10:53:29;9.30;79.50
43920;DHT22;29578;51.946;5.874;2023-04-04T10:55:59;9.40;79.70
43920;DHT22;29578;51.946;5.874;2023-04-04T10:58:27;9.50;79.50
43920;DHT22;29578;51.946;5.874;2023-04-04T11:00:54;9.50;79.50
43920;DHT22;29578;51.946;5.874;2023-04-04T11:03:21;9.50;79.70
43920;DHT22;29578;51.946;5.874;2023-04-04T11:05:47;9.60;79.50
43920;DHT22;29578;51.946;5.874;2023-04-04T11:08:17;9.60;79.20
43920;DHT22;29578;51.946;5.874;2023-04-04T11:10:47;9.60;79.40
43920;DHT22;29578;51.946;5.874;2023-04-04T11:13:19;9.70;79.50
43920;DHT22;29578;51.946;5.874;2023-04-04T11:15:56;9.80;79.20
43920;DHT22;29578;51.946;5.874;2023-04-04T11:18:44;9.90;78.60
43920;DHT22;29578;51.946;5.874;2023-04-04T11:21:15;10.00;78.30
43920;DHT22;29578;51.946;5.874;2023-04-04T11:24:12;10.20;78.20
43920;DHT22;29578;51.946;5.874;2023-04-04T11:26:41;10.20;77.80
43920;DHT22;29578;51.946;5.874;2023-04-04T11:29:48;10.30;77.50
43920;DHT22;29578;51.946;5.874;2023-04-04T11:32:26;10.30;77.30
43920;DHT22;29578;51.946;5.874;2023-04-04T11:34:51;10.40;77.00
43920;DHT22;29578;51.946;5.874;2023-04-04T11:37:17;10.50;76.90
43920;DHT22;29578;51.946;5.874;2023-04-04T11:39:47;10.60;77.20
43920;DHT22;29578;51.946;5.874;2023-04-04T11:42:22;10.70;76.30
43920;DHT22;29578;51.946;5.874;2023-04-04T11:45:05;10.70;75.90
43920;DHT22;29578;51.946;5.874;2023-04-04T11:47:31;10.70;75.80
43920;DHT22;29578;51.946;5.874;2023-04-04T11:49:59;10.80;75.70
43920;DHT22;29578;51.946;5.874;2023-04-04T11:52:26;10.90;75.30
43920;DHT22;29578;51.946;5.874;2023-04-04T11:54:56;11.00;75.20
43920;DHT22;29578;51.946;5.874;2023-04-04T11:57:22;11.20;74.90
43920;DHT22;29578;51.946;5.874;2023-04-04T11:59:49;11.10;74.30
43920;DHT22;29578;51.946;5.874;2023-04-04T12:02:19;11.10;74.30
43920;DHT22;29578;51.946;5.874;2023-04-04T12:04:46;11.30;74.10
43920;DHT22;29578;51.946;5.874;2023-04-04T12:07:13;11.50;73.90
43920;DHT22;29578;51.946;5.874;2023-04-04T12:09:40;11.70;73.50
43920;DHT22;29578;51.946;5.874;2023-04-04T12:12:07;11.70;73.00
43920;DHT22;29578;51.946;5.874;2023-04-04T12:14:37;11.60;72.70
43920;DHT22;29578;51.946;5.874;2023-04-04T12:17:04;11.60;72.90
43920;DHT22;29578;51.946;5.874;2023-04-04T12:19:30;11.70;72.90
43920;DHT22;29578;51.946;5.874;2023-04-04T12:22:00;11.80;72.50
43920;DHT22;29578;51.946;5.874;2023-04-04T12:24:26;11.80;72.20
43920;DHT22;29578;51.946;5.874;2023-04-04T12:26:52;11.90;72.20
43920;DHT22;29578;51.946;5.874;2023-04-04T12:29:20;12.00;72.10
43920;DHT22;29578;51.946;5.874;2023-04-04T12:31:47;12.00;71.80
43920;DHT22;29578;51.946;5.874;2023-04-04T12:34:16;11.90;71.90
43920;DHT22;29578;51.946;5.874;2023-04-04T12:36:42;12.10;71.90
43920;DHT22;29578;51.946;5.874;2023-04-04T12:39:09;12.20;71.60
43920;DHT22;29578;51.946;5.874;2023-04-04T12:41:50;12.20;71.30
43920;DHT22;29578;51.946;5.874;2023-04-04T12:44:36;12.10;71.10
43920;DHT22;29578;51.946;5.874;2023-04-04T12:47:05;12.20;71.30
43920;DHT22;29578;51.946;5.874;2023-04-04T12:49:37;12.20;71.30
43920;DHT22;29578;51.946;5.874;2023-04-04T12:52:04;12.30;71.30
43920;DHT22;29578;51.946;5.874;2023-04-04T12:54:34;12.40;71.00
43920;DHT22;29578;51.946;5.874;2023-04-04T12:57:03;12.50;70.80
43920;DHT22;29578;51.946;5.874;2023-04-04T12:59:35;12.60;70.40
43920;DHT22;29578;51.946;5.874;2023-04-04T13:02:02;12.50;70.30
43920;DHT22;29578;51.946;5.874;2023-04-04T13:04:28;12.50;70.50
43920;DHT22;29578;51.946;5.874;2023-04-04T13:06:54;12.60;70.40
43920;DHT22;29578;51.946;5.874;2023-04-04T13:09:21;12.60;70.10
43920;DHT22;29578;51.946;5.874;2023-04-04T13:12:01;12.50;70.20
43920;DHT22;29578;51.946;5.874;2023-04-04T13:14:41;12.60;70.10
43920;DHT22;29578;51.946;5.874;2023-04-04T13:17:13;12.70;70.20
43920;DHT22;29578;51.946;5.874;2023-04-04T13:19:40;12.70;69.90
43920;DHT22;29578;51.946;5.874;2023-04-04T13:22:08;12.60;69.60
43920;DHT22;29578;51.946;5.874;2023-04-04T13:24:33;12.70;69.90
43920;DHT22;29578;51.946;5.874;2023-04-04T13:26:59;12.80;69.70
43920;DHT22;29578;51.946;5.874;2023-04-04T13:29:25;12.70;69.40
43920;DHT22;29578;51.946;5.874;2023-04-04T13:31:52;12.70;69.30
43920;DHT22;29578;51.946;5.874;2023-04-04T13:34:20;12.70;69.50
43920;DHT22;29578;51.946;5.874;2023-04-04T13:36:46;12.70;69.40
43920;DHT22;29578;51.946;5.874;2023-04-04T13:39:11;12.70;69.20
43920;DHT22;29578;51.946;5.874;2023-04-04T13:41:37;12.60;69.40
43920;DHT22;29578;51.946;5.874;2023-04-04T13:44:03;12.60;69.60
43920;DHT22;29578;51.946;5.874;2023-04-04T13:46:28;12.60;69.70
43920;DHT22;29578;51.946;5.874;2023-04-04T13:48:54;12.50;69.60
43920;DHT22;29578;51.946;5.874;2023-04-04T13:51:20;12.50;69.50
43920;DHT22;29578;51.946;5.874;2023-04-04T13:53:45;12.50;69.60
43920;DHT22;29578;51.946;5.874;2023-04-04T13:56:11;12.40;69.50
43920;DHT22;29578;51.946;5.874;2023-04-04T13:58:37;12.30;69.60
43920;DHT22;29578;51.946;5.874;2023-04-04T14:01:03;12.30;69.80
43920;DHT22;29578;51.946;5.874;2023-04-04T14:03:31;12.20;69.90
43920;DHT22;29578;51.946;5.874;2023-04-04T14:05:57;12.30;69.60
43920;DHT22;29578;51.946;5.874;2023-04-04T14:08:22;12.20;69.60
43920;DHT22;29578;51.946;5.874;2023-04-04T14:10:48;12.10;70.20
43920;DHT22;29578;51.946;5.874;2023-04-04T14:13:14;12.10;69.70
43920;DHT22;29578;51.946;5.874;2023-04-04T14:15:40;12.10;69.80
43920;DHT22;29578;51.946;5.874;2023-04-04T14:18:06;12.00;69.60
43920;DHT22;29578;51.946;5.874;2023-04-04T14:20:32;12.00;69.80
43920;DHT22;29578;51.946;5.874;2023-04-04T14:22:57;11.80;69.70
43920;DHT22;29578;51.946;5.874;2023-04-04T14:25:23;11.80;69.90
43920;DHT22;29578;51.946;5.874;2023-04-04T14:27:50;11.80;69.70
43920;DHT22;29578;51.946;5.874;2023-04-04T14:30:16;11.80;69.60
43920;DHT22;29578;51.946;5.874;2023-04-04T14:32:41;11.80;69.60
43920;DHT22;29578;51.946;5.874;2023-04-04T14:35:07;11.80;69.60
43920;DHT22;29578;51.946;5.874;2023-04-04T14:37:33;11.90;69.50
43920;DHT22;29578;51.946;5.874;2023-04-04T14:39:59;12.00;69.30
43920;DHT22;29578;51.946;5.874;2023-04-04T14:42:24;11.90;69.00
43920;DHT22;29578;51.946;5.874;2023-04-04T14:44:50;12.00;68.80
43920;DHT22;29578;51.946;5.874;2023-04-04T14:47:16;12.00;68.90
43920;DHT22;29578;51.946;5.874;2023-04-04T14:49:41;12.10;68.70
43920;DHT22;29578;51.946;5.874;2023-04-04T14:52:07;12.00;68.50
43920;DHT22;29578;51.946;5.874;2023-04-04T14:54:33;11.90;68.40
43920;DHT22;29578;51.946;5.874;2023-04-04T14:56:59;11.90;68.40
43920;DHT22;29578;51.946;5.874;2023-04-04T14:59:26;11.90;68.30
43920;DHT22;29578;51.946;5.874;2023-04-04T15:01:52;12.00;68.30
43920;DHT22;29578;51.946;5.874;2023-04-04T15:04:17;12.20;67.90
43920;DHT22;29578;51.946;5.874;2023-04-04T15:06:43;12.20;67.30
43920;DHT22;29578;51.946;5.874;2023-04-04T15:09:11;12.20;67.30
43920;DHT22;29578;51.946;5.874;2023-04-04T15:11:37;12.30;67.20
43920;DHT22;29578;51.946;5.874;2023-04-04T15:14:04;12.40;66.80
43920;DHT22;29578;51.946;5.874;2023-04-04T15:16:30;12.50;66.40
43920;DHT22;29578;51.946;5.874;2023-04-04T15:18:58;12.60;66.00
43920;DHT22;29578;51.946;5.874;2023-04-04T15:21:24;12.60;65.90
43920;DHT22;29578;51.946;5.874;2023-04-04T15:23:51;12.60;66.00
43920;DHT22;29578;51.946;5.874;2023-04-04T15:26:17;12.60;65.70
43920;DHT22;29578;51.946;5.874;2023-04-04T15:28:42;12.80;65.30
43920;DHT22;29578;51.946;5.874;2023-04-04T15:31:08;12.80;65.10
43920;DHT22;29578;51.946;5.874;2023-04-04T15:46:13;12.70;64.60
43920;DHT22;29578;51.946;5.874;2023-04-04T15:48:39;13.00;62.70
43920;DHT22;29578;51.946;5.874;2023-04-04T15:51:05;12.90;63.00
43920;DHT22;29578;51.946;5.874;2023-04-04T15:53:31;12.90;63.30
43920;DHT22;29578;51.946;5.874;2023-04-04T15:55:57;12.80;63.50
43920;DHT22;29578;51.946;5.874;2023-04-04T15:58:24;12.60;63.70
43920;DHT22;29578;51.946;5.874;2023-04-04T16:00:51;12.60;64.00
43920;DHT22;29578;51.946;5.874;2023-04-04T16:03:17;12.50;64.10
43920;DHT22;29578;51.946;5.874;2023-04-04T16:05:43;12.30;64.20
43920;DHT22;29578;51.946;5.874;2023-04-04T16:08:09;12.30;64.30
43920;DHT22;29578;51.946;5.874;2023-04-04T16:10:35;12.30;64.60
43920;DHT22;29578;51.946;5.874;2023-04-04T16:13:00;12.20;64.80
43920;DHT22;29578;51.946;5.874;2023-04-04T16:15:26;12.10;64.80
43920;DHT22;29578;51.946;5.874;2023-04-04T16:17:52;12.00;64.70
43920;DHT22;29578;51.946;5.874;2023-04-04T16:20:18;12.00;65.00
43920;DHT22;29578;51.946;5.874;2023-04-04T16:22:44;12.00;65.10
43920;DHT22;29578;51.946;5.874;2023-04-04T16:25:09;11.90;65.00
43920;DHT22;29578;51.946;5.874;2023-04-04T16:27:35;11.90;65.00
43920;DHT22;29578;51.946;5.874;2023-04-04T16:30:01;11.90;65.00
43920;DHT22;29578;51.946;5.874;2023-04-04T16:32:27;12.00;64.90
43920;DHT22;29578;51.946;5.874;2023-04-04T16:34:53;11.80;64.90
43920;DHT22;29578;51.946;5.874;2023-04-04T16:37:18;11.70;64.90
43920;DHT22;29578;51.946;5.874;2023-04-04T16:39:44;11.70;64.90
43920;DHT22;29578;51.946;5.874;2023-04-04T16:42:11;11.60;64.80
43920;DHT22;29578;51.946;5.874;2023-04-04T16:44:36;11.50;64.80
43920;DHT22;29578;51.946;5.874;2023-04-04T16:47:02;11.40;64.80
43920;DHT22;29578;51.946;5.874;2023-04-04T16:49:27;11.40;64.90
43920;DHT22;29578;51.946;5.874;2023-04-04T16:51:53;11.40;64.90
43920;DHT22;29578;51.946;5.874;2023-04-04T16:54:19;11.30;64.80
43920;DHT22;29578;51.946;5.874;2023-04-04T16:56:44;11.20;64.70
43920;DHT22;29578;51.946;5.874;2023-04-04T16:59:10;11.30;64.90
43920;DHT22;29578;51.946;5.874;2023-04-04T17:01:36;11.10;64.70
43920;DHT22;29578;51.946;5.874;2023-04-04T17:04:02;11.10;64.80
43920;DHT22;29578;51.946;5.874;2023-04-04T17:06:28;11.00;64.80
43920;DHT22;29578;51.946;5.874;2023-04-04T17:08:53;11.00;64.80
43920;DHT22;29578;51.946;5.874;2023-04-04T17:11:19;10.90;64.90
43920;DHT22;29578;51.946;5.874;2023-04-04T17:13:45;10.80;64.80
43920;DHT22;29578;51.946;5.874;2023-04-04T17:16:11;10.80;65.00
43920;DHT22;29578;51.946;5.874;2023-04-04T17:18:37;10.60;65.00
43920;DHT22;29578;51.946;5.874;2023-04-04T17:21:03;10.60;65.20
43920;DHT22;29578;51.946;5.874;2023-04-04T17:23:28;10.50;65.30
43920;DHT22;29578;51.946;5.874;2023-04-04T17:25:54;10.50;65.30
43920;DHT22;29578;51.946;5.874;2023-04-04T17:28:20;10.40;65.30
43920;DHT22;29578;51.946;5.874;2023-04-04T17:30:45;10.40;65.40
43920;DHT22;29578;51.946;5.874;2023-04-04T17:33:11;10.40;65.40
43920;DHT22;29578;51.946;5.874;2023-04-04T17:35:39;10.30;65.40
43920;DHT22;29578;51.946;5.874;2023-04-04T17:38:04;10.30;65.40
43920;DHT22;29578;51.946;5.874;2023-04-04T17:40:30;10.20;65.40
43920;DHT22;29578;51.946;5.874;2023-04-04T17:42:56;10.20;65.50
43920;DHT22;29578;51.946;5.874;2023-04-04T17:45:21;10.20;65.40
43920;DHT22;29578;51.946;5.874;2023-04-04T17:47:47;10.10;65.50
43920;DHT22;29578;51.946;5.874;2023-04-04T17:50:13;10.00;65.50
43920;DHT22;29578;51.946;5.874;2023-04-04T17:52:39;10.00;65.50
43920;DHT22;29578;51.946;5.874;2023-04-04T17:55:06;9.90;65.50
43920;DHT22;29578;51.946;5.874;2023-04-04T17:57:33;9.90;65.50
43920;DHT22;29578;51.946;5.874;2023-04-04T17:59:58;9.80;65.50
43920;DHT22;29578;51.946;5.874;2023-04-04T18:02:24;9.70;65.50
43920;DHT22;29578;51.946;5.874;2023-04-04T18:04:49;9.70;65.60
43920;DHT22;29578;51.946;5.874;2023-04-04T18:07:16;9.60;65.50
43920;DHT22;29578;51.946;5.874;2023-04-04T18:09:43;9.50;65.50
43920;DHT22;29578;51.946;5.874;2023-04-04T18:12:10;9.40;65.50
43920;DHT22;29578;51.946;5.874;2023-04-04T18:14:36;9.40;65.60
43920;DHT22;29578;51.946;5.874;2023-04-04T18:17:02;9.40;65.60
43920;DHT22;29578;51.946;5.874;2023-04-04T18:19:28;9.30;65.60
43920;DHT22;29578;51.946;5.874;2023-04-04T18:21:54;9.30;65.70
43920;DHT22;29578;51.946;5.874;2023-04-04T18:24:25;9.20;65.70
43920;DHT22;29578;51.946;5.874;2023-04-04T18:26:51;9.20;65.80
43920;DHT22;29578;51.946;5.874;2023-04-04T18:29:18;9.10;65.80
43920;DHT22;29578;51.946;5.874;2023-04-04T18:31:43;9.00;65.90
43920;DHT22;29578;51.946;5.874;2023-04-04T18:34:09;9.00;65.90
43920;DHT22;29578;51.946;5.874;2023-04-04T18:36:34;8.90;66.00
43920;DHT22;29578;51.946;5.874;2023-04-04T18:39:00;8.90;66.10
43920;DHT22;29578;51.946;5.874;2023-04-04T18:41:26;8.80;66.00
43920;DHT22;29578;51.946;5.874;2023-04-04T18:43:52;8.80;66.10
43920;DHT22;29578;51.946;5.874;2023-04-04T18:46:17;8.70;66.10
43920;DHT22;29578;51.946;5.874;2023-04-04T18:48:43;8.70;66.20
43920;DHT22;29578;51.946;5.874;2023-04-04T18:51:09;8.70;66.20
43920;DHT22;29578;51.946;5.874;2023-04-04T18:53:34;8.60;66.20
43920;DHT22;29578;51.946;5.874;2023-04-04T18:56:00;8.60;66.30
43920;DHT22;29578;51.946;5.874;2023-04-04T18:58:26;8.50;66.20
43920;DHT22;29578;51.946;5.874;2023-04-04T19:00:52;8.50;66.30
43920;DHT22;29578;51.946;5.874;2023-04-04T19:03:20;8.40;66.30
43920;DHT22;29578;51.946;5.874;2023-04-04T19:05:47;8.40;66.30
43920;DHT22;29578;51.946;5.874;2023-04-04T19:08:16;8.30;66.30
43920;DHT22;29578;51.946;5.874;2023-04-04T19:10:44;8.30;66.40
43920;DHT22;29578;51.946;5.874;2023-04-04T19:13:12;8.30;66.50
43920;DHT22;29578;51.946;5.874;2023-04-04T19:15:38;8.20;66.50
43920;DHT22;29578;51.946;5.874;2023-04-04T19:18:03;8.10;66.60
43920;DHT22;29578;51.946;5.874;2023-04-04T19:20:29;8.10;66.60
43920;DHT22;29578;51.946;5.874;2023-04-04T19:22:55;8.10;66.70
43920;DHT22;29578;51.946;5.874;2023-04-04T19:25:20;8.00;66.70
43920;DHT22;29578;51.946;5.874;2023-04-04T19:27:46;8.10;66.80
43920;DHT22;29578;51.946;5.874;2023-04-04T19:30:40;8.00;66.70
43920;DHT22;29578;51.946;5.874;2023-04-04T19:33:14;8.00;66.70
43920;DHT22;29578;51.946;5.874;2023-04-04T19:35:57;8.00;67.40
43920;DHT22;29578;51.946;5.874;2023-04-04T19:38:27;7.90;66.60
43920;DHT22;29578;51.946;5.874;2023-04-04T19:40:56;7.90;66.60
43920;DHT22;29578;51.946;5.874;2023-04-04T19:43:22;7.90;66.60
43920;DHT22;29578;51.946;5.874;2023-04-04T19:45:50;7.80;66.50
43920;DHT22;29578;51.946;5.874;2023-04-04T19:48:44;7.80;66.50
43920;DHT22;29578;51.946;5.874;2023-04-04T19:51:36;7.80;66.60
43920;DHT22;29578;51.946;5.874;2023-04-04T19:54:05;7.70;66.60
43920;DHT22;29578;51.946;5.874;2023-04-04T19:56:34;7.70;66.70
43920;DHT22;29578;51.946;5.874;2023-04-04T19:59:01;7.70;66.80
43920;DHT22;29578;51.946;5.874;2023-04-04T20:01:30;7.70;66.80
43920;DHT22;29578;51.946;5.874;2023-04-04T20:04:04;7.60;66.70
43920;DHT22;29578;51.946;5.874;2023-04-04T20:06:31;7.70;66.80
43920;DHT22;29578;51.946;5.874;2023-04-04T20:08:59;7.60;66.80
43920;DHT22;29578;51.946;5.874;2023-04-04T20:11:30;7.60;66.80
43920;DHT22;29578;51.946;5.874;2023-04-04T20:13:58;7.60;66.80
43920;DHT22;29578;51.946;5.874;2023-04-04T20:16:25;7.50;66.70
43920;DHT22;29578;51.946;5.874;2023-04-04T20:18:51;7.50;66.70
43920;DHT22;29578;51.946;5.874;2023-04-04T20:21:21;7.50;66.70
43920;DHT22;29578;51.946;5.874;2023-04-04T20:23:50;7.50;66.70
43920;DHT22;29578;51.946;5.874;2023-04-04T20:29:18;7.40;66.70
43920;DHT22;29578;51.946;5.874;2023-04-04T20:31:50;7.40;66.70
43920;DHT22;29578;51.946;5.874;2023-04-04T20:34:45;7.30;66.70
43920;DHT22;29578;51.946;5.874;2023-04-04T20:37:16;7.30;66.70
43920;DHT22;29578;51.946;5.874;2023-04-04T20:39:56;7.20;66.80
43920;DHT22;29578;51.946;5.874;2023-04-04T20:42:36;7.20;66.90
43920;DHT22;29578;51.946;5.874;2023-04-04T20:45:29;7.20;67.00
43920;DHT22;29578;51.946;5.874;2023-04-04T20:47:57;7.30;67.10
43920;DHT22;29578;51.946;5.874;2023-04-04T20:50:42;7.10;67.10
43920;DHT22;29578;51.946;5.874;2023-04-04T20:53:12;7.00;67.10
43920;DHT22;29578;51.946;5.874;2023-04-04T20:55:40;6.90;67.10
43920;DHT22;29578;51.946;5.874;2023-04-04T20:58:18;6.90;67.20
43920;DHT22;29578;51.946;5.874;2023-04-04T21:00:44;6.90;67.20
43920;DHT22;29578;51.946;5.874;2023-04-04T21:03:32;6.90;67.40
43920;DHT22;29578;51.946;5.874;2023-04-04T21:06:10;6.80;67.40
43920;DHT22;29578;51.946;5.874;2023-04-04T21:08:47;6.80;67.50
43920;DHT22;29578;51.946;5.874;2023-04-04T21:11:21;6.70;67.60
43920;DHT22;29578;51.946;5.874;2023-04-04T21:13:47;6.70;67.70
43920;DHT22;29578;51.946;5.874;2023-04-04T21:16:15;6.60;67.70
43920;DHT22;29578;51.946;5.874;2023-04-04T21:18:42;6.50;67.80
43920;DHT22;29578;51.946;5.874;2023-04-04T21:21:16;6.50;67.90
43920;DHT22;29578;51.946;5.874;2023-04-04T21:23:46;6.40;68.00
43920;DHT22;29578;51.946;5.874;2023-04-04T21:26:25;6.40;68.10
43920;DHT22;29578;51.946;5.874;2023-04-04T21:28:51;6.30;68.30
43920;DHT22;29578;51.946;5.874;2023-04-04T21:31:20;6.20;68.40
43920;DHT22;29578;51.946;5.874;2023-04-04T21:33:49;6.20;69.20
43920;DHT22;29578;51.946;5.874;2023-04-04T21:36:30;6.10;68.60
43920;DHT22;29578;51.946;5.874;2023-04-04T21:38:58;6.00;68.80
43920;DHT22;29578;51.946;5.874;2023-04-04T21:41:31;6.00;68.90
43920;DHT22;29578;51.946;5.874;2023-04-04T21:43:58;5.90;69.00
43920;DHT22;29578;51.946;5.874;2023-04-04T21:46:26;5.90;69.20
43920;DHT22;29578;51.946;5.874;2023-04-04T21:48:52;5.80;69.30
43920;DHT22;29578;51.946;5.874;2023-04-04T21:51:18;5.70;69.40
43920;DHT22;29578;51.946;5.874;2023-04-04T21:53:44;5.70;69.50
43920;DHT22;29578;51.946;5.874;2023-04-04T21:56:11;5.50;69.60
43920;DHT22;29578;51.946;5.874;2023-04-04T21:58:37;5.60;69.80
43920;DHT22;29578;51.946;5.874;2023-04-04T22:01:02;5.50;69.80
43920;DHT22;29578;51.946;5.874;2023-04-04T22:03:28;5.40;69.80
43920;DHT22;29578;51.946;5.874;2023-04-04T22:05:53;5.40;69.80
43920;DHT22;29578;51.946;5.874;2023-04-04T22:08:19;5.50;69.80
43920;DHT22;29578;51.946;5.874;2023-04-04T22:10:45;5.40;69.80
43920;DHT22;29578;51.946;5.874;2023-04-04T22:13:12;5.30;69.80
43920;DHT22;29578;51.946;5.874;2023-04-04T22:15:43;5.30;70.00
43920;DHT22;29578;51.946;5.874;2023-04-04T22:18:11;5.20;70.00
43920;DHT22;29578;51.946;5.874;2023-04-04T22:20:40;5.30;70.20
43920;DHT22;29578;51.946;5.874;2023-04-04T22:23:07;5.10;70.20
43920;DHT22;29578;51.946;5.874;2023-04-04T22:25:33;5.10;70.30
43920;DHT22;29578;51.946;5.874;2023-04-04T22:27:59;5.00;71.00
43920;DHT22;29578;51.946;5.874;2023-04-04T22:30:28;4.90;70.50
43920;DHT22;29578;51.946;5.874;2023-04-04T22:32:54;4.90;70.50
43920;DHT22;29578;51.946;5.874;2023-04-04T22:35:25;4.90;70.60
43920;DHT22;29578;51.946;5.874;2023-04-04T22:37:52;4.80;70.50
43920;DHT22;29578;51.946;5.874;2023-04-04T22:40:19;4.80;70.50
43920;DHT22;29578;51.946;5.874;2023-04-04T22:42:45;4.80;70.50
43920;DHT22;29578;51.946;5.874;2023-04-04T22:45:11;4.80;70.50
43920;DHT22;29578;51.946;5.874;2023-04-04T22:47:37;4.80;70.50
43920;DHT22;29578;51.946;5.874;2023-04-04T22:50:04;4.80;70.50
43920;DHT22;29578;51.946;5.874;2023-04-04T22:52:31;4.70;70.50
43920;DHT22;29578;51.946;5.874;2023-04-04T22:54:57;4.80;70.50
43920;DHT22;29578;51.946;5.874;2023-04-04T22:57:23;4.70;70.50
43920;DHT22;29578;51.946;5.874;2023-04-04T22:59:49;4.70;70.50
43920;DHT22;29578;51.946;5.874;2023-04-04T23:02:15;4.60;70.40
43920;DHT22;29578;51.946;5.874;2023-04-04T23:04:40;4.70;70.40
43920;DHT22;29578;51.946;5.874;2023-04-04T23:07:06;4.60;70.40
43920;DHT22;29578;51.946;5.874;2023-04-04T23:09:32;4.50;70.40
43920;DHT22;29578;51.946;5.874;2023-04-04T23:11:58;4.50;70.40
43920;DHT22;29578;51.946;5.874;2023-04-04T23:14:24;4.60;70.40
43920;DHT22;29578;51.946;5.874;2023-04-04T23:16:55;4.50;70.40
43920;DHT22;29578;51.946;5.874;2023-04-04T23:19:21;4.50;70.30
43920;DHT22;29578;51.946;5.874;2023-04-04T23:21:46;4.50;70.30
43920;DHT22;29578;51.946;5.874;2023-04-04T23:24:12;4.30;70.10
43920;DHT22;29578;51.946;5.874;2023-04-04T23:26:37;4.40;70.30
43920;DHT22;29578;51.946;5.874;2023-04-04T23:29:03;4.20;70.30
43920;DHT22;29578;51.946;5.874;2023-04-04T23:31:30;4.30;70.40
43920;DHT22;29578;51.946;5.874;2023-04-04T23:33:57;4.30;70.40
43920;DHT22;29578;51.946;5.874;2023-04-04T23:36:23;4.20;70.40
43920;DHT22;29578;51.946;5.874;2023-04-04T23:38:49;4.10;70.40
43920;DHT22;29578;51.946;5.874;2023-04-04T23:41:15;4.10;70.50
43920;DHT22;29578;51.946;5.874;2023-04-04T23:43:42;4.10;70.50
43920;DHT22;29578;51.946;5.874;2023-04-04T23:46:08;4.00;70.50
43920;DHT22;29578;51.946;5.874;2023-04-04T23:48:34;4.00;70.60
43920;DHT22;29578;51.946;5.874;2023-04-04T23:50:59;4.00;70.60
43920;DHT22;29578;51.946;5.874;2023-04-04T23:53:26;3.90;70.60
43920;DHT22;29578;51.946;5.874;2023-04-04T23:55:54;3.90;70.70
43920;DHT22;29578;51.946;5.874;2023-04-04T23:58:20;3.80;70.50
